Time;durP1;ratioP1;P1;durP2;ratioP2;P2;SDS_P1;SDS_P2;PMS_P1;PMS_P2;Temp;Humidity;BMP_temperature;BMP_pressure;BME280_temperature;BME280_humidity;BME280_pressure;Samples;Min_cycle;Max_cycle;Signal;HPM_P1;HPM_P2
2023/12/21 00:00:16;;;;;;;12.35;4.28;;;;;;;;;;1039360;28;20044;-68
2023/12/21 00:01:07;;;;;;;7.18;3.45;;;;;;;;;;1040585;28;20497;-67
2023/12/21 00:01:49;;;;;;;6.38;3.20;;;;;;;;;;1045118;28;20131;-68
2023/12/21 00:02:20;;;;;;;9.43;2.90;;;;;;;;;;1044826;28;20040;-67
2023/12/21 00:02:50;;;;;;;7.88;2.90;;;;;;;;;;1045417;28;20048;-67
2023/12/21 00:03:21;;;;;;;5.95;2.85;;;;;;;;;;1044007;28;20062;-69
2023/12/21 00:03:51;;;;;;;6.13;3.00;;;;;;;;;;1041380;28;20049;-67
2023/12/21 00:04:22;;;;;;;9.45;3.15;;;;;;;;;;1040584;28;20469;-68
2023/12/21 00:04:53;;;;;;;9.45;3.50;;;;;;;;;;1040442;28;20053;-67
2023/12/21 00:05:23;;;;;;;8.10;3.17;;;;;;;;;;1038733;28;20131;-69
2023/12/21 00:05:54;;;;;;;8.13;3.33;;;;;;;;;;1038228;28;20470;-67
2023/12/21 00:06:24;;;;;;;8.68;3.72;;;;;;;;;;1038416;28;20100;-68
2023/12/21 00:06:55;;;;;;;11.23;3.53;;;;;;;;;;1038379;28;20497;-68
2023/12/21 00:07:25;;;;;;;11.60;3.53;;;;;;;;;;1038691;28;20060;-69
2023/12/21 00:07:56;;;;;;;8.50;3.13;;;;;;;;;;1038314;28;20049;-69
2023/12/21 00:08:26;;;;;;;4.90;2.92;;;;;;;;;;1039131;28;20060;-68
2023/12/21 00:08:57;;;;;;;6.57;3.08;;;;;;;;;;1040211;28;20061;-68
2023/12/21 00:09:27;;;;;;;8.50;3.13;;;;;;;;;;1040547;28;20042;-68
2023/12/21 00:09:58;;;;;;;11.05;3.10;;;;;;;;;;1041008;28;20053;-68
2023/12/21 00:10:29;;;;;;;12.98;3.45;;;;;;;;;;1039465;28;20057;-67
2023/12/21 00:10:59;;;;;;;7.25;3.55;;;;;;;;;;1039494;28;20490;-67
2023/12/21 00:11:30;;;;;;;8.48;3.03;;;;;;;;;;1040384;28;20040;-69
2023/12/21 00:12:01;;;;;;;7.90;3.25;;;;;;;;;;1039891;28;20049;-68
2023/12/21 00:12:31;;;;;;;9.98;3.22;;;;;;;;;;1038286;28;20099;-68
2023/12/21 00:13:02;;;;;;;6.63;3.33;;;;;;;;;;1037921;28;20057;-68
2023/12/21 00:13:32;;;;;;;6.90;3.00;;;;;;;;;;1039218;28;20053;-68
2023/12/21 00:14:03;;;;;;;8.05;3.10;;;;;;;;;;1040481;28;20048;-68
2023/12/21 00:14:33;;;;;;;6.50;2.85;;;;;;;;;;1038469;28;20135;-68
2023/12/21 00:15:04;;;;;;;5.57;3.08;;;;;;;;;;1040050;28;20037;-67
2023/12/21 00:15:35;;;;;;;10.48;3.22;;;;;;;;;;1039726;28;20045;-67
2023/12/21 00:16:06;;;;;;;7.57;3.10;;;;;;;;;;1039418;28;20053;-69
2023/12/21 00:16:36;;;;;;;10.27;3.47;;;;;;;;;;1039753;28;20079;-69
2023/12/21 00:17:07;;;;;;;7.18;2.88;;;;;;;;;;1040881;28;20614;-68
2023/12/21 00:17:37;;;;;;;5.28;3.05;;;;;;;;;;1038144;28;20049;-68
2023/12/21 00:18:08;;;;;;;7.60;3.25;;;;;;;;;;1038267;28;20033;-68
2023/12/21 00:18:39;;;;;;;6.40;2.88;;;;;;;;;;1039209;28;20045;-68
2023/12/21 00:19:09;;;;;;;9.18;3.70;;;;;;;;;;1038045;28;20050;-68
2023/12/21 00:19:40;;;;;;;5.82;3.08;;;;;;;;;;1039568;28;20516;-68
2023/12/21 00:20:10;;;;;;;5.93;3.10;;;;;;;;;;1038874;28;20052;-69
2023/12/21 00:20:41;;;;;;;4.78;3.25;;;;;;;;;;1039904;28;20048;-69
2023/12/21 00:21:11;;;;;;;7.05;2.97;;;;;;;;;;1039655;28;20068;-66
2023/12/21 00:21:42;;;;;;;8.07;3.40;;;;;;;;;;1037444;28;20148;-67
2023/12/21 00:22:12;;;;;;;9.07;3.47;;;;;;;;;;1038261;28;20053;-68
2023/12/21 00:22:43;;;;;;;6.30;2.65;;;;;;;;;;1037176;28;20087;-68
2023/12/21 00:23:13;;;;;;;11.02;3.53;;;;;;;;;;1038232;28;20045;-69
2023/12/21 00:23:44;;;;;;;6.53;3.05;;;;;;;;;;1038699;28;20069;-69
2023/12/21 00:24:15;;;;;;;5.78;2.80;;;;;;;;;;1040083;28;20053;-67
2023/12/21 00:24:45;;;;;;;6.03;3.17;;;;;;;;;;1040773;28;20045;-69
2023/12/21 00:25:16;;;;;;;5.90;2.90;;;;;;;;;;1039563;28;20049;-68
2023/12/21 00:25:46;;;;;;;6.80;3.22;;;;;;;;;;1037692;28;20120;-68
2023/12/21 00:26:17;;;;;;;12.63;4.10;;;;;;;;;;1038896;28;20053;-69
2023/12/21 00:26:47;;;;;;;12.02;3.25;;;;;;;;;;1037948;28;20057;-68
2023/12/21 00:27:18;;;;;;;7.20;3.05;;;;;;;;;;1037527;28;20041;-69
2023/12/21 00:27:49;;;;;;;9.27;3.47;;;;;;;;;;1039205;28;20048;-67
2023/12/21 00:28:19;;;;;;;5.40;3.13;;;;;;;;;;1039217;28;20477;-68
2023/12/21 00:28:50;;;;;;;8.02;3.63;;;;;;;;;;1039759;28;20124;-68
2023/12/21 00:29:20;;;;;;;9.98;2.92;;;;;;;;;;1038747;28;20048;-68
2023/12/21 00:29:51;;;;;;;9.00;3.45;;;;;;;;;;1040514;28;20436;-67
2023/12/21 00:30:22;;;;;;;8.77;3.35;;;;;;;;;;1038707;28;20045;-69
2023/12/21 00:30:53;;;;;;;9.60;3.05;;;;;;;;;;1041561;28;20053;-69
2023/12/21 00:31:23;;;;;;;10.35;3.38;;;;;;;;;;1038214;28;20065;-69
2023/12/21 00:31:54;;;;;;;7.68;2.95;;;;;;;;;;1041831;28;20045;-69
2023/12/21 00:32:24;;;;;;;7.35;3.22;;;;;;;;;;1039517;28;20069;-68
2023/12/21 00:32:55;;;;;;;8.05;3.45;;;;;;;;;;1041621;28;20041;-69
2023/12/21 00:33:25;;;;;;;7.28;2.80;;;;;;;;;;1041817;28;20485;-67
2023/12/21 00:33:56;;;;;;;6.40;2.78;;;;;;;;;;1039064;28;20034;-69
2023/12/21 00:34:26;;;;;;;6.38;3.13;;;;;;;;;;1040848;28;20443;-68
2023/12/21 00:34:57;;;;;;;11.65;3.55;;;;;;;;;;1041350;28;20052;-69
2023/12/21 00:35:27;;;;;;;4.70;3.22;;;;;;;;;;1039849;28;20052;-69
2023/12/21 00:35:58;;;;;;;8.57;3.53;;;;;;;;;;1040901;28;20033;-67
2023/12/21 00:36:28;;;;;;;4.32;2.80;;;;;;;;;;1038992;28;20136;-69
2023/12/21 00:36:59;;;;;;;9.05;3.60;;;;;;;;;;1038305;28;20069;-69
2023/12/21 00:37:36;;;;;;;9.57;3.40;;;;;;;;;;1038725;28;20120;-69
2023/12/21 00:38:06;;;;;;;10.82;3.30;;;;;;;;;;1038725;28;20133;-68
2023/12/21 00:38:37;;;;;;;7.85;3.45;;;;;;;;;;1037818;28;20044;-68
2023/12/21 00:39:08;;;;;;;6.57;3.28;;;;;;;;;;1039617;28;20053;-68
2023/12/21 00:39:38;;;;;;;9.65;3.60;;;;;;;;;;1037059;28;20033;-68
2023/12/21 00:40:09;;;;;;;5.15;3.00;;;;;;;;;;1038844;28;20046;-70
2023/12/21 00:40:40;;;;;;;7.28;3.58;;;;;;;;;;1038309;28;20045;-69
2023/12/21 00:41:10;;;;;;;4.47;2.80;;;;;;;;;;1042017;28;20048;-69
2023/12/21 00:41:41;;;;;;;5.70;3.05;;;;;;;;;;1038456;28;20060;-69
2023/12/21 00:42:11;;;;;;;5.35;3.30;;;;;;;;;;1040206;28;20161;-69
2023/12/21 00:42:42;;;;;;;6.30;3.33;;;;;;;;;;1038555;28;20060;-68
2023/12/21 00:43:12;;;;;;;10.95;4.13;;;;;;;;;;1037732;28;20056;-69
2023/12/21 00:43:43;;;;;;;6.03;3.75;;;;;;;;;;1041050;28;20049;-68
2023/12/21 00:44:13;;;;;;;8.13;3.53;;;;;;;;;;1040093;28;20069;-69
2023/12/21 00:44:46;;;;;;;6.65;3.25;;;;;;;;;;1038126;28;20644;-67
2023/12/21 00:45:16;;;;;;;8.60;3.67;;;;;;;;;;1039677;28;20042;-68
2023/12/21 00:45:47;;;;;;;12.80;3.95;;;;;;;;;;1037544;28;20049;-68
2023/12/21 00:46:18;;;;;;;6.43;3.30;;;;;;;;;;1038444;28;20618;-68
2023/12/21 00:46:48;;;;;;;8.80;3.35;;;;;;;;;;1039000;28;20049;-68
2023/12/21 00:47:19;;;;;;;8.70;3.20;;;;;;;;;;1038907;28;20247;-68
2023/12/21 00:47:49;;;;;;;6.18;3.25;;;;;;;;;;1039248;28;20052;-69
2023/12/21 00:48:19;;;;;;;9.20;3.35;;;;;;;;;;1039946;28;20049;-69
2023/12/21 00:48:50;;;;;;;5.85;3.03;;;;;;;;;;1037020;28;20085;-68
2023/12/21 00:49:20;;;;;;;8.48;3.33;;;;;;;;;;1038743;28;20094;-69
2023/12/21 00:49:51;;;;;;;7.15;3.60;;;;;;;;;;1038695;28;20098;-68
2023/12/21 00:50:22;;;;;;;5.90;3.00;;;;;;;;;;1039056;28;20068;-68
2023/12/21 00:50:53;;;;;;;14.45;3.50;;;;;;;;;;1039903;28;20098;-69
2023/12/21 00:51:23;;;;;;;15.52;3.63;;;;;;;;;;1038962;28;20136;-68
2023/12/21 00:51:54;;;;;;;8.40;4.38;;;;;;;;;;1038400;28;20057;-67
2023/12/21 00:52:24;;;;;;;8.75;3.47;;;;;;;;;;1038139;28;20144;-68
2023/12/21 00:52:54;;;;;;;11.77;3.95;;;;;;;;;;1037992;28;20064;-69
2023/12/21 00:53:25;;;;;;;7.32;3.22;;;;;;;;;;1037264;28;20445;-68
2023/12/21 00:53:56;;;;;;;9.93;3.33;;;;;;;;;;1038764;28;20069;-67
2023/12/21 00:54:26;;;;;;;9.13;3.55;;;;;;;;;;1037116;28;20041;-68
2023/12/21 00:54:57;;;;;;;13.68;3.88;;;;;;;;;;1038026;28;20053;-68
2023/12/21 00:55:27;;;;;;;8.52;3.20;;;;;;;;;;1038339;28;20219;-68
2023/12/21 00:55:58;;;;;;;9.10;3.47;;;;;;;;;;1040977;28;20861;-69
2023/12/21 00:56:28;;;;;;;6.90;3.15;;;;;;;;;;1039672;28;20045;-68
2023/12/21 00:56:59;;;;;;;10.88;3.35;;;;;;;;;;1041014;28;20085;-69
2023/12/21 00:57:29;;;;;;;6.50;3.67;;;;;;;;;;1040271;28;20045;-69
2023/12/21 00:58:00;;;;;;;9.95;4.43;;;;;;;;;;1039292;28;20050;-70
2023/12/21 00:58:30;;;;;;;5.88;3.58;;;;;;;;;;1041381;28;20504;-68
2023/12/21 00:59:03;;;;;;;10.73;3.60;;;;;;;;;;1041721;28;20137;-67
2023/12/21 00:59:34;;;;;;;6.93;3.42;;;;;;;;;;1039940;28;20136;-68
2023/12/21 01:00:07;;;;;;;8.30;3.53;;;;;;;;;;1039858;28;20052;-69
2023/12/21 01:00:38;;;;;;;9.43;3.88;;;;;;;;;;1039180;28;20041;-69
2023/12/21 01:01:08;;;;;;;7.07;3.33;;;;;;;;;;1040711;28;20452;-69
2023/12/21 01:01:39;;;;;;;7.63;3.35;;;;;;;;;;1039714;28;20048;-69
2023/12/21 01:02:09;;;;;;;12.13;3.40;;;;;;;;;;1040353;28;20037;-68
2023/12/21 01:02:40;;;;;;;10.52;3.78;;;;;;;;;;1038498;28;21859;-69
2023/12/21 01:03:10;;;;;;;9.40;3.38;;;;;;;;;;1038602;28;20038;-69
2023/12/21 01:03:41;;;;;;;8.85;3.17;;;;;;;;;;1039800;28;20436;-69
2023/12/21 01:04:11;;;;;;;8.10;3.30;;;;;;;;;;1039748;28;20041;-68
2023/12/21 01:04:42;;;;;;;11.52;3.30;;;;;;;;;;1037330;28;20840;-67
2023/12/21 01:05:12;;;;;;;10.82;3.72;;;;;;;;;;1039704;28;20478;-69
2023/12/21 01:05:43;;;;;;;8.02;3.88;;;;;;;;;;1038115;28;20464;-69
2023/12/21 01:06:13;;;;;;;7.85;3.50;;;;;;;;;;1040429;28;20399;-67
2023/12/21 01:06:44;;;;;;;10.43;4.60;;;;;;;;;;1040547;28;20508;-68
2023/12/21 01:07:14;;;;;;;8.55;3.58;;;;;;;;;;1038114;28;20631;-67
2023/12/21 01:07:45;;;;;;;11.20;3.70;;;;;;;;;;1036575;28;20053;-69
2023/12/21 01:08:16;;;;;;;14.05;4.43;;;;;;;;;;1037340;28;20069;-68
2023/12/21 01:08:47;;;;;;;10.75;4.47;;;;;;;;;;1040152;28;20056;-67
2023/12/21 01:09:17;;;;;;;8.57;3.80;;;;;;;;;;1039972;28;20049;-69
2023/12/21 01:09:48;;;;;;;8.25;4.55;;;;;;;;;;1038984;28;20652;-69
2023/12/21 01:10:18;;;;;;;7.90;3.30;;;;;;;;;;1039215;28;20107;-69
2023/12/21 01:10:49;;;;;;;6.82;3.65;;;;;;;;;;1038229;28;20707;-66
2023/12/21 01:11:19;;;;;;;10.95;3.92;;;;;;;;;;1038349;28;20041;-68
2023/12/21 01:11:49;;;;;;;8.70;3.63;;;;;;;;;;1041423;28;20053;-67
2023/12/21 01:12:20;;;;;;;10.98;3.33;;;;;;;;;;1040835;28;20044;-69
2023/12/21 01:12:51;;;;;;;9.38;3.55;;;;;;;;;;1039222;28;20107;-68
2023/12/21 01:13:22;;;;;;;10.00;3.83;;;;;;;;;;1039449;28;20045;-68
2023/12/21 01:13:52;;;;;;;15.63;3.88;;;;;;;;;;1039901;28;20045;-68
2023/12/21 01:14:24;;;;;;;14.98;3.97;;;;;;;;;;1040201;28;20118;-69
2023/12/21 01:14:54;;;;;;;22.45;4.50;;;;;;;;;;1038177;28;20053;-68
2023/12/21 01:15:26;;;;;;;6.50;3.88;;;;;;;;;;1039297;28;20132;-68
2023/12/21 01:15:57;;;;;;;6.80;3.47;;;;;;;;;;1037733;28;20470;-68
2023/12/21 01:16:27;;;;;;;6.72;3.08;;;;;;;;;;1040298;28;20056;-68
2023/12/21 01:16:58;;;;;;;12.68;4.00;;;;;;;;;;1038186;28;20037;-68
2023/12/21 01:17:29;;;;;;;12.88;3.70;;;;;;;;;;1038518;28;20765;-68
2023/12/21 01:17:59;;;;;;;6.80;3.03;;;;;;;;;;1038755;28;20285;-68
2023/12/21 01:18:30;;;;;;;8.60;3.60;;;;;;;;;;1037570;28;20103;-69
2023/12/21 01:19:00;;;;;;;7.20;3.42;;;;;;;;;;1038759;28;20058;-69
2023/12/21 01:19:30;;;;;;;10.68;3.63;;;;;;;;;;1041443;28;20048;-68
2023/12/21 01:20:01;;;;;;;7.75;3.47;;;;;;;;;;1042067;28;20075;-69
2023/12/21 01:20:32;;;;;;;9.70;3.75;;;;;;;;;;1040056;28;20126;-68
2023/12/21 01:21:03;;;;;;;11.45;3.90;;;;;;;;;;1038844;28;20490;-67
2023/12/21 01:21:33;;;;;;;11.23;4.13;;;;;;;;;;1039828;28;20044;-69
2023/12/21 01:22:03;;;;;;;9.65;3.85;;;;;;;;;;1038147;28;20053;-68
2023/12/21 01:22:34;;;;;;;13.27;3.92;;;;;;;;;;1037210;28;20128;-70
2023/12/21 01:23:04;;;;;;;11.57;4.68;;;;;;;;;;1041479;28;20075;-67
2023/12/21 01:23:35;;;;;;;11.15;3.42;;;;;;;;;;1039340;28;20118;-68
2023/12/21 01:24:06;;;;;;;11.05;3.90;;;;;;;;;;1038967;28;20053;-69
2023/12/21 01:24:36;;;;;;;6.22;3.53;;;;;;;;;;1040091;28;20391;-67
2023/12/21 01:25:07;;;;;;;14.57;4.25;;;;;;;;;;1040135;28;20063;-70
2023/12/21 01:25:37;;;;;;;7.80;3.58;;;;;;;;;;1038319;28;20068;-68
2023/12/21 01:26:08;;;;;;;11.25;4.18;;;;;;;;;;1040190;28;20808;-67
2023/12/21 01:26:38;;;;;;;9.95;3.92;;;;;;;;;;1040659;28;20147;-68
2023/12/21 01:27:09;;;;;;;7.32;3.50;;;;;;;;;;1042181;28;20080;-68
2023/12/21 01:27:39;;;;;;;8.30;3.33;;;;;;;;;;1042836;28;20045;-68
2023/12/21 01:28:10;;;;;;;9.00;3.42;;;;;;;;;;1043329;28;20049;-69
2023/12/21 01:28:40;;;;;;;9.52;3.72;;;;;;;;;;1040514;28;20056;-69
2023/12/21 01:29:11;;;;;;;11.38;3.88;;;;;;;;;;1042530;28;20053;-69
2023/12/21 01:29:41;;;;;;;7.72;3.45;;;;;;;;;;1041729;28;20053;-68
2023/12/21 01:30:12;;;;;;;11.60;4.10;;;;;;;;;;1042215;28;20049;-69
2023/12/21 01:30:42;;;;;;;10.25;3.70;;;;;;;;;;1041840;28;20045;-67
2023/12/21 01:31:13;;;;;;;10.95;4.43;;;;;;;;;;1040391;28;20049;-68
2023/12/21 01:31:44;;;;;;;11.45;3.95;;;;;;;;;;1040388;28;20057;-70
2023/12/21 01:32:14;;;;;;;13.77;4.15;;;;;;;;;;1041932;28;20493;-67
2023/12/21 01:32:45;;;;;;;7.25;3.20;;;;;;;;;;1041860;28;20803;-67
2023/12/21 01:33:15;;;;;;;10.55;3.85;;;;;;;;;;1042365;28;20056;-69
2023/12/21 01:33:46;;;;;;;11.43;3.70;;;;;;;;;;1040493;28;20049;-68
2023/12/21 01:34:16;;;;;;;10.07;3.88;;;;;;;;;;1040419;28;20083;-67
2023/12/21 01:34:46;;;;;;;9.95;3.97;;;;;;;;;;1038215;28;20242;-69
2023/12/21 01:35:17;;;;;;;10.75;3.72;;;;;;;;;;1040786;28;20645;-68
2023/12/21 01:35:48;;;;;;;12.18;3.92;;;;;;;;;;1038824;28;20053;-67
2023/12/21 01:36:18;;;;;;;9.95;4.03;;;;;;;;;;1040721;28;20123;-69
2023/12/21 01:36:49;;;;;;;10.30;4.07;;;;;;;;;;1040379;28;20053;-69
2023/12/21 01:37:19;;;;;;;8.45;3.90;;;;;;;;;;1041998;28;20052;-69
2023/12/21 01:37:50;;;;;;;7.40;3.30;;;;;;;;;;1040264;28;20067;-68
2023/12/21 01:38:20;;;;;;;14.27;4.07;;;;;;;;;;1040700;28;20061;-67
2023/12/21 01:38:51;;;;;;;11.00;4.00;;;;;;;;;;1040103;28;20127;-68
2023/12/21 01:39:21;;;;;;;10.23;4.40;;;;;;;;;;1038877;28;20091;-68
2023/12/21 01:39:52;;;;;;;12.80;3.85;;;;;;;;;;1039358;28;20049;-67
2023/12/21 01:40:23;;;;;;;11.60;4.10;;;;;;;;;;1039737;28;20057;-68
2023/12/21 01:40:53;;;;;;;12.25;4.35;;;;;;;;;;1040948;28;20053;-66
2023/12/21 01:41:24;;;;;;;9.57;3.95;;;;;;;;;;1039542;28;20847;-68
2023/12/21 01:41:54;;;;;;;11.57;3.60;;;;;;;;;;1039937;28;20139;-67
2023/12/21 01:42:25;;;;;;;11.45;3.40;;;;;;;;;;1041219;28;20041;-67
2023/12/21 01:42:56;;;;;;;9.95;3.85;;;;;;;;;;1040711;28;20085;-68
2023/12/21 01:43:26;;;;;;;11.77;4.10;;;;;;;;;;1039745;28;20060;-67
2023/12/21 01:43:57;;;;;;;11.68;3.85;;;;;;;;;;1039794;28;20072;-68
2023/12/21 01:44:28;;;;;;;8.05;4.00;;;;;;;;;;1040008;28;20759;-68
2023/12/21 01:44:58;;;;;;;11.85;3.88;;;;;;;;;;1040392;28;20041;-68
2023/12/21 01:45:29;;;;;;;6.00;3.17;;;;;;;;;;1040131;28;20128;-68
2023/12/21 01:46:00;;;;;;;14.80;4.07;;;;;;;;;;1041849;28;20084;-66
2023/12/21 01:46:31;;;;;;;9.93;3.67;;;;;;;;;;1039595;28;20048;-68
2023/12/21 01:47:02;;;;;;;7.65;3.60;;;;;;;;;;1040669;28;20497;-68
2023/12/21 01:47:33;;;;;;;10.32;3.67;;;;;;;;;;1042004;28;20048;-68
2023/12/21 01:48:03;;;;;;;10.65;3.17;;;;;;;;;;1042495;28;20128;-69
2023/12/21 01:48:34;;;;;;;9.32;3.50;;;;;;;;;;1041993;28;20071;-68
2023/12/21 01:49:05;;;;;;;13.00;3.95;;;;;;;;;;1039352;28;20064;-68
2023/12/21 01:49:36;;;;;;;11.68;4.22;;;;;;;;;;1041210;28;20040;-67
2023/12/21 01:50:07;;;;;;;14.57;4.20;;;;;;;;;;1039156;28;20808;-69
2023/12/21 01:50:38;;;;;;;12.40;3.95;;;;;;;;;;1039472;28;20045;-68
2023/12/21 01:51:11;;;;;;;7.15;3.45;;;;;;;;;;1039817;28;20080;-69
2023/12/21 01:51:42;;;;;;;8.30;3.65;;;;;;;;;;1041371;28;20052;-70
2023/12/21 01:52:12;;;;;;;7.78;3.83;;;;;;;;;;1039450;28;20060;-70
2023/12/21 01:52:43;;;;;;;12.15;4.20;;;;;;;;;;1039765;28;20744;-67
2023/12/21 01:53:15;;;;;;;9.07;4.18;;;;;;;;;;1039482;28;20044;-68
2023/12/21 01:53:47;;;;;;;10.98;3.70;;;;;;;;;;1040856;28;20053;-68
2023/12/21 01:54:18;;;;;;;9.65;4.00;;;;;;;;;;1042285;28;20045;-67
2023/12/21 01:54:49;;;;;;;8.48;4.43;;;;;;;;;;1040375;28;20053;-68
2023/12/21 01:55:20;;;;;;;12.23;3.83;;;;;;;;;;1038661;28;20632;-66
2023/12/21 01:55:50;;;;;;;8.77;3.85;;;;;;;;;;1038581;28;20050;-67
2023/12/21 01:56:21;;;;;;;8.27;3.92;;;;;;;;;;1038532;28;20132;-69
2023/12/21 01:56:51;;;;;;;9.73;4.35;;;;;;;;;;1040892;28;20718;-68
2023/12/21 01:57:22;;;;;;;9.52;4.38;;;;;;;;;;1042319;28;20754;-69
2023/12/21 01:57:53;;;;;;;13.02;4.10;;;;;;;;;;1038523;28;20136;-69
2023/12/21 01:58:23;;;;;;;11.52;4.25;;;;;;;;;;1039718;28;20055;-70
2023/12/21 01:58:54;;;;;;;12.60;4.13;;;;;;;;;;1040692;28;20529;-68
2023/12/21 01:59:26;;;;;;;8.43;3.63;;;;;;;;;;1040548;28;20045;-67
2023/12/21 01:59:57;;;;;;;13.57;4.95;;;;;;;;;;1039859;28;20049;-66
2023/12/21 02:00:28;;;;;;;12.10;4.13;;;;;;;;;;1040886;28;20056;-67
2023/12/21 02:00:59;;;;;;;10.07;4.18;;;;;;;;;;1039041;28;20049;-67
2023/12/21 02:01:30;;;;;;;8.35;3.67;;;;;;;;;;1040095;28;20053;-67
2023/12/21 02:02:00;;;;;;;12.75;3.55;;;;;;;;;;1040955;28;20103;-68
2023/12/21 02:02:31;;;;;;;9.20;4.20;;;;;;;;;;1039609;28;20069;-68
2023/12/21 02:03:01;;;;;;;9.68;4.50;;;;;;;;;;1040228;28;20061;-67
2023/12/21 02:03:32;;;;;;;10.07;4.20;;;;;;;;;;1038412;28;20056;-69
2023/12/21 02:04:03;;;;;;;10.32;4.60;;;;;;;;;;1038531;28;20198;-69
2023/12/21 02:04:34;;;;;;;9.52;4.15;;;;;;;;;;1037970;28;20053;-69
2023/12/21 02:05:05;;;;;;;10.20;3.70;;;;;;;;;;1038844;28;20046;-68
2023/12/21 02:05:35;;;;;;;8.70;4.25;;;;;;;;;;1039527;28;20066;-68
2023/12/21 02:06:06;;;;;;;9.95;4.15;;;;;;;;;;1039691;28;20760;-67
2023/12/21 02:06:38;;;;;;;14.88;4.57;;;;;;;;;;1039523;28;20074;-67
2023/12/21 02:07:08;;;;;;;15.75;4.10;;;;;;;;;;1041234;28;20143;-69
2023/12/21 02:07:39;;;;;;;8.75;3.75;;;;;;;;;;1039451;28;20095;-67
2023/12/21 02:08:10;;;;;;;7.60;3.70;;;;;;;;;;1040874;28;20041;-67
2023/12/21 02:08:41;;;;;;;10.27;3.78;;;;;;;;;;1041408;28;20064;-67
2023/12/21 02:09:13;;;;;;;10.82;4.05;;;;;;;;;;1039982;28;20048;-68
2023/12/21 02:09:43;;;;;;;10.40;4.25;;;;;;;;;;1042362;28;20084;-68
2023/12/21 02:10:14;;;;;;;11.02;3.97;;;;;;;;;;1042167;28;20143;-69
2023/12/21 02:10:44;;;;;;;10.75;3.72;;;;;;;;;;1040607;28;20045;-69
2023/12/21 02:11:15;;;;;;;14.13;4.30;;;;;;;;;;1040745;28;20065;-69
2023/12/21 02:11:46;;;;;;;11.80;3.55;;;;;;;;;;1039269;28;20057;-68
2023/12/21 02:12:17;;;;;;;11.93;4.03;;;;;;;;;;1040568;28;20056;-68
2023/12/21 02:12:47;;;;;;;7.15;4.05;;;;;;;;;;1041139;28;20056;-69
2023/12/21 02:13:18;;;;;;;10.45;4.30;;;;;;;;;;1040008;28;20052;-69
2023/12/21 02:13:48;;;;;;;13.43;3.88;;;;;;;;;;1039758;28;20053;-68
2023/12/21 02:14:19;;;;;;;8.85;3.88;;;;;;;;;;1040063;28;20118;-68
2023/12/21 02:14:49;;;;;;;7.45;3.50;;;;;;;;;;1040080;28;20037;-68
2023/12/21 02:15:20;;;;;;;11.55;3.90;;;;;;;;;;1041340;28;20505;-67
2023/12/21 02:15:53;;;;;;;8.13;3.45;;;;;;;;;;1040219;28;20132;-68
2023/12/21 02:16:32;;;;;;;14.00;3.97;;;;;;;;;;1040629;28;20802;-69
2023/12/21 02:17:06;;;;;;;7.03;3.10;;;;;;;;;;1041463;28;20033;-69
2023/12/21 02:17:40;;;;;;;9.73;3.70;;;;;;;;;;1040342;28;20045;-69
2023/12/21 02:18:11;;;;;;;13.23;4.60;;;;;;;;;;1039868;28;20063;-67
2023/12/21 02:18:42;;;;;;;11.48;4.28;;;;;;;;;;1039119;28;20052;-68
2023/12/21 02:19:13;;;;;;;16.00;4.18;;;;;;;;;;1039544;28;20060;-67
2023/12/21 02:19:44;;;;;;;11.60;4.07;;;;;;;;;;1039294;28;20128;-68
2023/12/21 02:20:16;;;;;;;10.10;3.97;;;;;;;;;;1040420;28;20063;-69
2023/12/21 02:20:47;;;;;;;9.70;3.63;;;;;;;;;;1039519;28;20049;-68
2023/12/21 02:21:18;;;;;;;12.18;4.30;;;;;;;;;;1042046;28;20076;-68
2023/12/21 02:21:51;;;;;;;12.57;4.50;;;;;;;;;;1039388;28;20059;-69
2023/12/21 02:22:24;;;;;;;11.35;4.00;;;;;;;;;;1039806;28;20056;-67
2023/12/21 02:22:59;;;;;;;7.22;3.42;;;;;;;;;;1039700;28;20060;-68
2023/12/21 02:23:34;;;;;;;9.65;4.00;;;;;;;;;;1040101;28;20060;-69
2023/12/21 02:24:13;;;;;;;7.80;3.65;;;;;;;;;;1039098;28;20562;-68
2023/12/21 02:24:44;;;;;;;10.80;3.80;;;;;;;;;;1037834;28;20050;-67
2023/12/21 02:25:15;;;;;;;9.85;3.83;;;;;;;;;;1035013;28;20048;-68
2023/12/21 02:25:46;;;;;;;13.20;3.92;;;;;;;;;;1035966;28;20068;-67
2023/12/21 02:26:18;;;;;;;11.88;4.13;;;;;;;;;;1036736;28;20045;-69
2023/12/21 02:26:48;;;;;;;10.93;3.63;;;;;;;;;;1035946;28;20140;-67
2023/12/21 02:27:19;;;;;;;17.58;4.15;;;;;;;;;;1035611;28;20667;-67
2023/12/21 02:27:50;;;;;;;7.50;4.00;;;;;;;;;;1035391;28;20087;-67
2023/12/21 02:28:20;;;;;;;9.95;3.60;;;;;;;;;;1036090;28;20563;-68
2023/12/21 02:28:51;;;;;;;11.20;4.10;;;;;;;;;;1035206;28;20092;-68
2023/12/21 02:29:21;;;;;;;11.07;3.83;;;;;;;;;;1035261;28;20061;-69
2023/12/21 02:29:52;;;;;;;16.27;4.00;;;;;;;;;;1034021;28;20095;-68
2023/12/21 02:30:22;;;;;;;9.10;3.92;;;;;;;;;;1035490;28;20136;-67
2023/12/21 02:30:53;;;;;;;10.07;3.42;;;;;;;;;;1035053;28;20042;-68
2023/12/21 02:31:24;;;;;;;11.07;3.53;;;;;;;;;;1036744;28;20049;-68
2023/12/21 02:31:54;;;;;;;7.90;3.40;;;;;;;;;;1036976;28;20049;-68
2023/12/21 02:32:25;;;;;;;7.22;3.90;;;;;;;;;;1035691;28;20088;-67
2023/12/21 02:32:56;;;;;;;8.00;3.63;;;;;;;;;;1035794;28;21334;-70
2023/12/21 02:33:27;;;;;;;8.27;3.50;;;;;;;;;;1036591;28;20445;-68
2023/12/21 02:33:57;;;;;;;9.40;3.95;;;;;;;;;;1037982;28;20544;-69
2023/12/21 02:34:28;;;;;;;11.30;3.88;;;;;;;;;;1037263;28;20099;-68
2023/12/21 02:34:59;;;;;;;12.38;3.75;;;;;;;;;;1034474;28;20077;-70
2023/12/21 02:35:29;;;;;;;7.57;4.32;;;;;;;;;;1035723;28;20049;-68
2023/12/21 02:35:59;;;;;;;12.40;3.78;;;;;;;;;;1034471;28;20054;-68
2023/12/21 02:36:30;;;;;;;11.48;4.07;;;;;;;;;;1037583;28;20084;-68
2023/12/21 02:37:00;;;;;;;10.50;3.95;;;;;;;;;;1035439;28;20668;-68
2023/12/21 02:37:31;;;;;;;12.60;3.78;;;;;;;;;;1033820;28;20042;-69
2023/12/21 02:38:01;;;;;;;8.23;3.70;;;;;;;;;;1037571;28;20055;-68
2023/12/21 02:38:32;;;;;;;11.23;4.07;;;;;;;;;;1035175;28;20156;-67
2023/12/21 02:39:03;;;;;;;10.75;3.83;;;;;;;;;;1035649;28;20049;-68
2023/12/21 02:39:33;;;;;;;12.23;3.83;;;;;;;;;;1036969;28;20052;-68
2023/12/21 02:40:04;;;;;;;12.68;4.40;;;;;;;;;;1035613;28;20049;-69
2023/12/21 02:40:35;;;;;;;10.85;3.70;;;;;;;;;;1034070;28;20057;-69
2023/12/21 02:41:05;;;;;;;10.60;3.72;;;;;;;;;;1037886;28;20046;-70
2023/12/21 02:41:36;;;;;;;9.52;4.40;;;;;;;;;;1035795;28;20053;-68
2023/12/21 02:42:06;;;;;;;9.98;3.97;;;;;;;;;;1037222;28;20637;-69
2023/12/21 02:42:37;;;;;;;10.25;3.90;;;;;;;;;;1037923;28;20798;-68
2023/12/21 02:43:08;;;;;;;11.02;4.03;;;;;;;;;;1038156;28;20053;-67
2023/12/21 02:43:38;;;;;;;11.77;4.15;;;;;;;;;;1035658;28;20414;-68
2023/12/21 02:44:09;;;;;;;5.20;3.70;;;;;;;;;;1035778;28;20064;-68
2023/12/21 02:44:39;;;;;;;7.90;4.05;;;;;;;;;;1036535;28;20053;-68
2023/12/21 02:45:09;;;;;;;7.82;3.80;;;;;;;;;;1037301;28;20410;-69
2023/12/21 02:45:40;;;;;;;12.98;4.10;;;;;;;;;;1035029;28;20077;-68
2023/12/21 02:46:11;;;;;;;6.28;3.83;;;;;;;;;;1035231;28;20437;-68
2023/12/21 02:46:41;;;;;;;7.95;3.83;;;;;;;;;;1035036;28;20050;-67
2023/12/21 02:47:12;;;;;;;11.07;3.80;;;;;;;;;;1036475;28;20114;-68
2023/12/21 02:47:42;;;;;;;12.98;3.75;;;;;;;;;;1036483;28;20076;-69
2023/12/21 02:48:13;;;;;;;10.43;3.97;;;;;;;;;;1034732;28;20226;-68
2023/12/21 02:48:43;;;;;;;9.65;3.60;;;;;;;;;;1037633;28;20568;-70
2023/12/21 02:49:14;;;;;;;8.75;3.80;;;;;;;;;;1036134;28;20057;-68
2023/12/21 02:49:44;;;;;;;11.13;3.97;;;;;;;;;;1035126;28;20138;-69
2023/12/21 02:50:15;;;;;;;12.13;4.35;;;;;;;;;;1034521;28;20398;-69
2023/12/21 02:50:45;;;;;;;9.07;4.40;;;;;;;;;;1036239;28;20049;-68
2023/12/21 02:51:16;;;;;;;7.93;3.42;;;;;;;;;;1037409;28;20079;-67
2023/12/21 02:51:46;;;;;;;10.25;3.67;;;;;;;;;;1036530;28;20091;-69
2023/12/21 02:52:17;;;;;;;9.20;3.50;;;;;;;;;;1034682;28;20542;-67
2023/12/21 02:52:47;;;;;;;8.75;3.70;;;;;;;;;;1036087;28;20050;-68
2023/12/21 02:53:18;;;;;;;13.48;4.30;;;;;;;;;;1036742;28;20116;-68
2023/12/21 02:53:49;;;;;;;11.20;3.60;;;;;;;;;;1035877;28;20093;-68
2023/12/21 02:54:20;;;;;;;11.13;4.38;;;;;;;;;;1034062;28;20072;-67
2023/12/21 02:54:50;;;;;;;10.98;3.20;;;;;;;;;;1038163;28;20057;-67
2023/12/21 02:55:21;;;;;;;7.60;3.35;;;;;;;;;;1036963;28;20042;-68
2023/12/21 02:55:51;;;;;;;6.45;3.35;;;;;;;;;;1036746;28;20053;-68
2023/12/21 02:56:22;;;;;;;6.53;3.45;;;;;;;;;;1036469;28;21084;-69
2023/12/21 02:56:53;;;;;;;10.00;3.50;;;;;;;;;;1037968;28;20825;-66
2023/12/21 02:57:23;;;;;;;8.52;3.90;;;;;;;;;;1036075;28;20427;-68
2023/12/21 02:57:54;;;;;;;13.95;3.85;;;;;;;;;;1035013;28;20084;-67
2023/12/21 02:58:24;;;;;;;13.02;3.75;;;;;;;;;;1036526;28;20053;-69
2023/12/21 02:58:55;;;;;;;11.05;3.65;;;;;;;;;;1033633;28;20057;-66
2023/12/21 02:59:26;;;;;;;9.63;3.42;;;;;;;;;;1035203;28;20050;-66
2023/12/21 02:59:56;;;;;;;7.70;3.45;;;;;;;;;;1034218;28;20125;-68
2023/12/21 03:00:27;;;;;;;9.77;3.38;;;;;;;;;;1034921;28;20120;-67
2023/12/21 03:00:57;;;;;;;8.45;3.47;;;;;;;;;;1034214;28;20060;-68
2023/12/21 03:01:28;;;;;;;10.38;3.65;;;;;;;;;;1035369;28;20049;-66
2023/12/21 03:01:58;;;;;;;8.50;3.58;;;;;;;;;;1037396;28;20054;-68
2023/12/21 03:02:29;;;;;;;11.18;3.75;;;;;;;;;;1036375;28;20061;-68
2023/12/21 03:02:59;;;;;;;9.18;3.40;;;;;;;;;;1034884;28;20463;-68
2023/12/21 03:03:30;;;;;;;11.15;3.75;;;;;;;;;;1034699;28;20034;-68
2023/12/21 03:04:00;;;;;;;6.28;3.00;;;;;;;;;;1034604;28;20395;-67